KRTN/RTN METAR and TAF weather

Enter ICAO airport designator
Station Type Date Time Source
KRTN METAR 2024/04/23 03:53 UTC NOAA

KRTN 230353Z AUTO 28009KT 10SM CLR 16/M06 A2996 RMK AO2 SLP080 T01561056


Station Type Date Time Source
KRTN Decoded METAR 2024/04/23 03:53 UTC NOAA

Raton, Raton Municipal \ Crews Field Airport, NM, United States (KRTN) 36-44-31N 104-39-28W 1939M
Apr 22, 2024 - 11:53 PM EDT / 2024.04.23 0353 UTC
Wind: from the W (280 degrees) at 10 MPH (9 KT):0
Visibility: 10 mile(s):0
Sky conditions: clear
Temperature: 60.1 F (15.6 C)
Dew Point: 21.9 F (-5.6 C)
Relative Humidity: 22%
Pressure (altimeter): 29.96 in. Hg (1014 hPa)
ob: KRTN 230353Z AUTO 28009KT 10SM CLR 16/M06 A2996 RMK AO2 SLP080 T01561056
cycle: 4

Station Type Date Time Source
KRTN TAF UTC NOAA

Error!

Example: see airport list